TimeCST,TemperatureF,Dew PointF,Humidity,Sea Level PressureIn,VisibilityMPH,Wind Direction,Wind SpeedMPH,Gust SpeedMPH,PrecipitationIn,Events,Conditions,WindDirDegrees,DateUTC
12:15 AM,52.5,33.3,48,29.69,10.0,South,4.6,-,N/A,,Clear,190,2013-12-03 06:15:00
12:35 AM,48.9,33.8,56,29.68,10.0,SSW,6.9,-,N/A,,Clear,200,2013-12-03 06:35:00
12:55 AM,49.5,33.8,55,29.67,10.0,South,5.8,-,N/A,,Clear,190,2013-12-03 06:55:00
1:15 AM,50.2,34.2,54,29.67,10.0,South,4.6,-,N/A,,Clear,170,2013-12-03 07:15:00
1:35 AM,50.0,34.7,56,29.66,10.0,SSE,4.6,-,N/A,,Clear,160,2013-12-03 07:35:00
1:55 AM,49.3,34.7,57,29.65,10.0,Calm,Calm,-,N/A,,Clear,0,2013-12-03 07:55:00
2:15 AM,50.4,35.4,57,29.64,10.0,SW,6.9,-,N/A,,Clear,230,2013-12-03 08:15:00
2:35 AM,55.6,35.2,46,29.64,10.0,WSW,11.5,-,N/A,,Clear,240,2013-12-03 08:35:00
2:55 AM,56.8,33.8,42,29.63,10.0,SW,16.1,-,N/A,,Clear,230,2013-12-03 08:55:00
3:15 AM,57.2,32.9,40,29.63,10.0,WSW,16.1,23.0,N/A,,Clear,240,2013-12-03 09:15:00
3:35 AM,55.9,32.9,42,29.63,10.0,WSW,13.8,-,N/A,,Clear,240,2013-12-03 09:35:00
3:55 AM,54.7,32.5,43,29.63,10.0,SW,11.5,-,N/A,,Clear,230,2013-12-03 09:55:00
4:15 AM,54.0,32.0,43,29.63,10.0,WSW,6.9,-,N/A,,Clear,240,2013-12-03 10:15:00
4:35 AM,54.7,31.5,41,29.62,10.0,WSW,9.2,-,N/A,,Clear,240,2013-12-03 10:35:00
4:55 AM,54.1,31.3,42,29.62,10.0,WSW,10.4,-,N/A,,Clear,250,2013-12-03 10:55:00
5:15 AM,53.4,30.9,42,29.62,10.0,WSW,11.5,16.1,N/A,,Clear,250,2013-12-03 11:15:00
5:35 AM,54.1,30.4,40,29.62,10.0,WSW,10.4,-,N/A,,Clear,240,2013-12-03 11:35:00
5:55 AM,54.3,30.0,39,29.61,10.0,WSW,9.2,-,N/A,,Clear,240,2013-12-03 11:55:00
6:15 AM,55.4,28.9,36,29.61,10.0,SW,9.2,-,N/A,,Clear,230,2013-12-03 12:15:00
6:35 AM,54.5,28.9,38,29.62,10.0,WSW,9.2,-,N/A,,Clear,240,2013-12-03 12:35:00
6:55 AM,56.7,28.4,34,29.62,10.0,WSW,10.4,-,N/A,,Clear,250,2013-12-03 12:55:00
7:15 AM,57.2,27.9,33,29.62,10.0,WSW,11.5,16.1,N/A,,Clear,240,2013-12-03 13:15:00
7:35 AM,58.1,27.5,31,29.63,10.0,WSW,10.4,-,N/A,,Clear,250,2013-12-03 13:35:00
7:55 AM,58.1,28.2,32,29.63,10.0,SW,9.2,-,N/A,,Clear,230,2013-12-03 13:55:00
8:15 AM,59.2,28.9,32,29.63,10.0,WSW,8.1,16.1,N/A,,Clear,240,2013-12-03 14:15:00
8:35 AM,59.0,29.1,32,29.64,10.0,WSW,8.1,-,N/A,,Clear,240,2013-12-03 14:35:00
8:55 AM,61.5,29.7,30,29.64,10.0,WSW,12.7,17.3,N/A,,Clear,250,2013-12-03 14:55:00
9:15 AM,63.9,29.1,27,29.65,10.0,WSW,13.8,20.7,N/A,,Clear,250,2013-12-03 15:15:00
9:35 AM,66.7,28.4,24,29.66,10.0,WSW,12.7,20.7,N/A,,Clear,250,2013-12-03 15:35:00
9:55 AM,66.4,28.8,24,29.67,10.0,WSW,13.8,-,N/A,,Clear,250,2013-12-03 15:55:00
10:15 AM,67.6,28.9,24,29.67,10.0,West,12.7,19.6,N/A,,Clear,260,2013-12-03 16:15:00
10:35 AM,70.0,28.8,22,29.68,10.0,West,10.4,17.3,N/A,,Clear,270,2013-12-03 16:35:00
10:55 AM,71.6,29.7,21,29.67,10.0,West,9.2,-,N/A,,Clear,260,2013-12-03 16:55:00
11:15 AM,70.7,29.7,22,29.67,10.0,West,15.0,19.6,N/A,,Clear,260,2013-12-03 17:15:00
11:35 AM,71.8,30.6,22,29.67,10.0,West,12.7,23.0,N/A,,Clear,260,2013-12-03 17:35:00
11:55 AM,73.2,32.5,22,29.66,10.0,WSW,11.5,18.4,N/A,,Clear,250,2013-12-03 17:55:00
12:15 PM,75.2,32.4,21,29.64,10.0,SW,10.4,16.1,N/A,,Clear,230,2013-12-03 18:15:00
12:35 PM,75.4,31.8,20,29.63,10.0,West,10.4,-,N/A,,Clear,260,2013-12-03 18:35:00
12:55 PM,77.2,30.9,18,29.62,10.0,WSW,11.5,16.1,N/A,,Clear,250,2013-12-03 18:55:00
1:15 PM,79.0,29.5,16,29.61,10.0,WSW,10.4,-,N/A,,Clear,250,2013-12-03 19:15:00
1:35 PM,79.5,29.1,16,29.60,10.0,WSW,10.4,16.1,N/A,,Clear,240,2013-12-03 19:35:00
1:55 PM,80.4,29.1,15,29.59,10.0,WSW,12.7,17.3,N/A,,Clear,240,2013-12-03 19:55:00
2:15 PM,80.6,28.4,15,29.59,10.0,WSW,10.4,-,N/A,,Clear,250,2013-12-03 20:15:00
2:35 PM,81.5,27.7,14,29.58,10.0,WSW,11.5,17.3,N/A,,Clear,240,2013-12-03 20:35:00
2:55 PM,82.2,26.8,13,29.58,10.0,WSW,11.5,16.1,N/A,,Clear,250,2013-12-03 20:55:00
3:15 PM,81.5,28.4,14,29.58,10.0,SW,6.9,16.1,N/A,,Clear,220,2013-12-03 21:15:00
3:35 PM,80.8,30.7,16,29.58,10.0,SSW,9.2,-,N/A,,Clear,200,2013-12-03 21:35:00
3:55 PM,79.7,30.2,16,29.58,10.0,SSW,11.5,-,N/A,,Clear,210,2013-12-03 21:55:00
4:15 PM,80.4,30.6,16,29.58,10.0,SW,9.2,-,N/A,,Clear,220,2013-12-03 22:15:00
4:35 PM,78.4,30.2,17,29.58,10.0,SW,10.4,-,N/A,,Clear,220,2013-12-03 22:35:00
4:55 PM,77.2,30.6,18,29.59,10.0,SW,8.1,-,N/A,,Clear,220,2013-12-03 22:55:00
5:15 PM,75.6,30.9,19,29.59,10.0,SW,9.2,-,N/A,,Clear,220,2013-12-03 23:15:00
5:35 PM,73.4,30.7,21,29.60,10.0,SW,8.1,-,N/A,,Clear,220,2013-12-03 23:35:00
5:55 PM,71.2,31.1,23,29.60,10.0,SW,8.1,-,N/A,,Clear,220,2013-12-03 23:55:00
6:15 PM,69.8,32.0,25,29.60,10.0,SW,9.2,-,N/A,,Clear,220,2013-12-04 00:15:00
6:35 PM,68.7,32.9,27,29.61,10.0,SW,10.4,-,N/A,,Clear,220,2013-12-04 00:35:00
6:55 PM,68.4,32.5,27,29.61,10.0,SW,9.2,-,N/A,,Clear,220,2013-12-04 00:55:00
7:15 PM,65.8,32.4,29,29.61,10.0,SW,8.1,-,N/A,,Clear,220,2013-12-04 01:15:00
7:35 PM,66.0,32.0,28,29.62,10.0,SSW,9.2,-,N/A,,Clear,210,2013-12-04 01:35:00
7:55 PM,65.7,31.1,27,29.62,10.0,SSW,10.4,-,N/A,,Clear,210,2013-12-04 01:55:00
8:15 PM,66.7,32.0,27,29.62,10.0,SSW,10.4,-,N/A,,Clear,210,2013-12-04 02:15:00
8:35 PM,65.1,34.0,31,29.63,10.0,SSW,9.2,-,N/A,,Clear,200,2013-12-04 02:35:00
8:55 PM,65.7,35.2,32,29.63,10.0,SW,11.5,-,N/A,,Clear,220,2013-12-04 02:55:00
9:15 PM,63.9,35.6,35,29.63,10.0,SSW,10.4,-,N/A,,Clear,210,2013-12-04 03:15:00
9:35 PM,64.8,36.5,35,29.63,10.0,SW,11.5,-,N/A,,Clear,220,2013-12-04 03:35:00
9:55 PM,65.3,36.5,34,29.64,10.0,SW,12.7,-,N/A,,Clear,220,2013-12-04 03:55:00
10:15 PM,65.5,36.1,34,29.64,10.0,SW,11.5,-,N/A,,Clear,220,2013-12-04 04:15:00
10:35 PM,64.8,36.0,34,29.64,10.0,SSW,10.4,-,N/A,,Clear,210,2013-12-04 04:35:00
10:55 PM,65.3,35.8,34,29.64,10.0,SW,11.5,-,N/A,,Clear,220,2013-12-04 04:55:00
11:15 PM,65.3,35.8,34,29.64,10.0,SW,12.7,-,N/A,,Clear,220,2013-12-04 05:15:00
11:35 PM,64.8,36.1,35,29.64,10.0,SW,11.5,-,N/A,,Clear,220,2013-12-04 05:35:00
11:55 PM,64.4,36.5,36,29.64,10.0,SW,13.8,-,N/A,,Clear,220,2013-12-04 05:55:00